Time;durP1;ratioP1;P1;durP2;ratioP2;P2;SDS_P1;SDS_P2;PMS_P1;PMS_P2;Temp;Humidity;BMP_temperature;BMP_pressure;BME280_temperature;BME280_humidity;BME280_pressure;Samples;Min_cycle;Max_cycle;Signal;HPM_P1;HPM_P2
2022/06/23 00:01:59;;;;;;;7.13;5.38;;;13.00;99.90;;;;;;5033924;28;20037;-88
2022/06/23 00:04:32;;;;;;;5.70;5.10;;;13.00;99.90;;;;;;5051119;28;20037;-88
2022/06/23 00:07:06;;;;;;;6.50;4.78;;;12.90;1.00;;;;;;5038506;28;20095;-88
2022/06/23 00:09:38;;;;;;;8.30;5.67;;;12.80;99.90;;;;;;5032404;28;20040;-88
2022/06/23 00:12:36;;;;;;;9.23;5.90;;;12.90;99.90;;;;;;5022343;28;20049;-88
2022/06/23 00:15:02;;;;;;;5.80;5.15;;;12.80;1.00;;;;;;5019604;28;20689;-88
2022/06/23 00:17:34;;;;;;;7.43;5.85;;;12.80;99.90;;;;;;5038275;28;20069;-88
2022/06/23 00:20:06;;;;;;;7.20;5.65;;;12.90;1.00;;;;;;5029664;28;20041;-88
2022/06/23 00:22:33;;;;;;;9.30;7.03;;;12.90;1.00;;;;;;5042209;28;20144;-88
2022/06/23 00:25:02;;;;;;;8.15;6.22;;;12.90;1.00;;;;;;5039610;28;20041;-88
2022/06/23 00:27:35;;;;;;;8.27;6.85;;;12.80;1.00;;;;;;5024955;28;20041;-89
2022/06/23 00:30:19;;;;;;;9.95;6.32;;;12.80;1.00;;;;;;5025058;28;20059;-88
2022/06/23 00:32:44;;;;;;;9.13;6.72;;;12.80;1.00;;;;;;5027116;28;20041;-89
2022/06/23 00:35:16;;;;;;;7.72;6.47;;;12.80;1.00;;;;;;5025496;28;20036;-88
2022/06/23 00:37:49;;;;;;;8.98;6.60;;;12.70;1.00;;;;;;5042690;28;20040;-88
2022/06/23 00:40:22;;;;;;;5.07;4.50;;;12.60;1.00;;;;;;5040537;28;20045;-88
2022/06/23 00:43:00;;;;;;;5.90;5.00;;;12.50;1.00;;;;;;5040793;28;20230;-89
2022/06/23 00:46:04;;;;;;;8.57;6.20;;;12.50;1.00;;;;;;5033282;28;20404;-88
2022/06/23 00:48:37;;;;;;;8.63;5.68;;;12.40;1.00;;;;;;5043335;28;20041;-87
2022/06/23 00:51:21;;;;;;;7.75;6.65;;;12.40;1.00;;;;;;5041846;28;20450;-88
2022/06/23 00:53:59;;;;;;;8.70;6.68;;;12.40;1.00;;;;;;5036901;28;20044;-88
2022/06/23 00:56:47;;;;;;;9.45;7.55;;;12.40;1.00;;;;;;5041122;28;20649;-88
2022/06/23 00:59:21;;;;;;;10.85;8.02;;;12.50;1.00;;;;;;5037275;28;20052;-89
2022/06/23 01:01:59;;;;;;;9.27;7.60;;;12.50;1.00;;;;;;5023818;28;20113;-88
2022/06/23 01:04:42;;;;;;;8.68;7.43;;;12.50;1.00;;;;;;5042067;28;20388;-88
2022/06/23 01:07:27;;;;;;;9.88;7.30;;;12.40;1.00;;;;;;5041555;28;20076;-87
2022/06/23 01:10:19;;;;;;;11.23;8.47;;;12.40;1.00;;;;;;5036630;28;20428;-87
2022/06/23 01:12:47;;;;;;;9.70;7.70;;;12.40;1.00;;;;;;5028458;28;20061;-87
2022/06/23 01:15:27;;;;;;;13.13;8.20;;;12.30;1.00;;;;;;5034625;28;20049;-88
2022/06/23 01:18:14;;;;;;;12.00;7.90;;;12.40;13.50;;;;;;5053153;28;20502;-88
2022/06/23 01:21:08;;;;;;;11.88;8.18;;;12.40;16.10;;;;;;5052806;28;20051;-87
2022/06/23 01:24:03;;;;;;;10.77;8.52;;;12.30;1.00;;;;;;5041535;28;20052;-86
2022/06/23 01:26:50;;;;;;;11.35;8.20;;;12.30;1.00;;;;;;5035236;28;20080;-87
2022/06/23 01:30:14;;;;;;;12.70;8.77;;;12.30;1.00;;;;;;5038088;28;20546;-87
2022/06/23 01:32:46;;;;;;;11.93;8.57;;;12.30;11.00;;;;;;4964580;28;20431;-87
2022/06/23 01:35:24;;;;;;;14.50;9.43;;;12.20;44.70;;;;;;4977847;28;20043;-86
2022/06/23 01:37:53;;;;;;;11.43;8.30;;;12.30;65.10;;;;;;4981093;28;20054;-87
2022/06/23 01:40:23;;;;;;;14.82;9.63;;;12.30;39.00;;;;;;4955390;28;20042;-87
2022/06/23 01:42:55;;;;;;;11.00;8.55;;;12.20;55.50;;;;;;4981212;28;20144;-87
2022/06/23 01:45:33;;;;;;;13.23;9.50;;;12.10;27.20;;;;;;5023077;28;20044;-87
2022/06/23 01:48:13;;;;;;;12.68;9.50;;;12.20;79.20;;;;;;5056674;28;20527;-88
2022/06/23 01:50:53;;;;;;;11.68;8.35;;;12.30;90.40;;;;;;5022420;28;20040;-87
2022/06/23 01:53:33;;;;;;;14.43;9.82;;;12.10;50.60;;;;;;5048055;28;20086;-87
2022/06/23 01:56:04;;;;;;;12.00;8.85;;;12.10;81.80;;;;;;5053323;28;20048;-88
2022/06/23 01:58:47;;;;;;;15.48;9.30;;;12.10;54.60;;;;;;5042542;28;20033;-88
2022/06/23 02:01:26;;;;;;;12.25;9.02;;;12.10;91.20;;;;;;5050208;28;20037;-88
2022/06/23 02:03:59;;;;;;;12.40;9.10;;;12.10;78.40;;;;;;5031092;28;20047;-87
2022/06/23 02:06:39;;;;;;;15.85;9.40;;;12.10;80.70;;;;;;5038411;28;20077;-88
2022/06/23 02:09:31;;;;;;;10.82;8.75;;;12.20;99.90;;;;;;5037821;28;20559;-88
2022/06/23 02:11:57;;;;;;;15.10;9.50;;;12.10;95.60;;;;;;5042089;28;20159;-88
2022/06/23 02:14:41;;;;;;;12.30;9.23;;;12.10;98.30;;;;;;5024948;28;20492;-88
2022/06/23 02:17:47;;;;;;;13.20;9.50;;;12.10;74.70;;;;;;5034838;28;20033;-88
2022/06/23 02:20:36;;;;;;;16.30;10.27;;;12.00;72.60;;;;;;5035116;28;20037;-88
2022/06/23 02:23:13;;;;;;;16.67;10.23;;;12.00;99.90;;;;;;5042683;28;20363;-87
2022/06/23 02:25:46;;;;;;;15.40;10.60;;;12.10;99.90;;;;;;5038306;28;20484;-88
2022/06/23 02:28:21;;;;;;;18.55;11.02;;;12.10;99.90;;;;;;5024789;28;20509;-88
2022/06/23 02:30:53;;;;;;;15.18;10.27;;;12.10;99.90;;;;;;5021521;28;20047;-88
2022/06/23 02:33:36;;;;;;;17.13;11.60;;;12.10;99.90;;;;;;5018824;28;20527;-87
2022/06/23 02:36:05;;;;;;;17.48;10.68;;;12.10;99.90;;;;;;5036104;28;20128;-87
2022/06/23 02:38:41;;;;;;;21.00;12.10;;;12.10;99.90;;;;;;5034776;28;20395;-87
2022/06/23 02:41:18;;;;;;;22.90;12.90;;;12.10;99.90;;;;;;5037496;28;20481;-88
2022/06/23 02:44:10;;;;;;;23.30;13.05;;;12.20;99.90;;;;;;5038703;28;20123;-88
2022/06/23 02:46:48;;;;;;;16.52;11.40;;;12.20;99.90;;;;;;5033044;28;20038;-88
2022/06/23 02:49:21;;;;;;;19.10;11.73;;;12.20;99.90;;;;;;5040706;28;20041;-87
2022/06/23 02:52:10;;;;;;;21.30;12.70;;;12.30;99.90;;;;;;5038807;28;20041;-87
2022/06/23 02:54:46;;;;;;;22.90;13.25;;;12.40;99.90;;;;;;5034352;28;20544;-87
2022/06/23 02:57:33;;;;;;;17.92;11.38;;;12.40;99.90;;;;;;5039608;28;20048;-87
2022/06/23 03:00:12;;;;;;;23.48;12.90;;;12.40;99.90;;;;;;5051767;28;20568;-87
2022/06/23 03:03:04;;;;;;;19.05;12.70;;;12.50;99.90;;;;;;5035635;28;20411;-87
2022/06/23 03:05:40;;;;;;;19.65;11.88;;;12.50;99.90;;;;;;5048005;28;20046;-87
2022/06/23 03:08:18;;;;;;;22.80;13.27;;;12.40;99.90;;;;;;5020587;28;20045;-87
2022/06/23 03:10:57;;;;;;;25.05;13.30;;;12.50;99.90;;;;;;5036203;28;20063;-87
2022/06/23 03:13:35;;;;;;;19.70;12.95;;;12.50;99.90;;;;;;5026991;28;20124;-87
2022/06/23 03:16:16;;;;;;;22.45;12.68;;;12.60;99.90;;;;;;5047623;28;20045;-87
2022/06/23 03:19:06;;;;;;;21.63;14.02;;;12.60;99.90;;;;;;5034657;28;20041;-86
2022/06/23 03:21:50;;;;;;;21.42;13.40;;;12.50;99.90;;;;;;5037190;28;20078;-87
2022/06/23 03:24:23;;;;;;;22.83;13.50;;;12.60;99.90;;;;;;5017266;28;20025;-87
2022/06/23 03:27:05;;;;;;;17.90;12.20;;;12.60;99.90;;;;;;5035320;28;20117;-87
2022/06/23 03:29:48;;;;;;;19.83;13.20;;;12.60;99.90;;;;;;5025015;28;20065;-86
2022/06/23 03:32:30;;;;;;;20.02;12.50;;;12.70;99.90;;;;;;5034516;28;20043;-87
2022/06/23 03:35:22;;;;;;;20.95;12.82;;;12.70;99.90;;;;;;5026271;28;20067;-87
2022/06/23 03:38:03;;;;;;;22.23;13.02;;;12.70;99.90;;;;;;5039810;28;20041;-86
2022/06/23 03:43:22;;;;;;;20.55;12.98;;;12.70;99.90;;;;;;5035523;28;20246;-87
2022/06/23 03:45:57;;;;;;;19.85;12.73;;;12.70;99.90;;;;;;5038269;28;20044;-87
2022/06/23 03:48:36;;;;;;;19.23;12.88;;;12.70;99.90;;;;;;5018634;28;20113;-87
2022/06/23 03:51:27;;;;;;;20.75;12.63;;;12.70;99.90;;;;;;5019068;28;20052;-87
2022/06/23 03:53:56;;;;;;;19.15;13.52;;;12.80;99.90;;;;;;5039340;28;20045;-87
2022/06/23 03:56:26;;;;;;;20.83;13.18;;;12.70;99.90;;;;;;5038654;28;20048;-87
2022/06/23 03:59:06;;;;;;;16.77;12.35;;;12.80;99.90;;;;;;5038562;28;20029;-86
2022/06/23 04:01:53;;;;;;;20.15;12.80;;;12.80;99.90;;;;;;5036596;28;20090;-87
2022/06/23 04:04:45;;;;;;;20.38;13.98;;;12.90;99.90;;;;;;5038940;28;20043;-87
2022/06/23 04:07:34;;;;;;;21.73;12.90;;;12.90;99.90;;;;;;5032407;28;20392;-87
2022/06/23 04:10:04;;;;;;;17.65;12.52;;;13.00;99.90;;;;;;5034243;28;20389;-87
2022/06/23 04:12:32;;;;;;;19.80;12.52;;;13.00;99.90;;;;;;5033139;28;20525;-86
2022/06/23 04:15:09;;;;;;;22.38;13.13;;;13.10;99.90;;;;;;5031117;28;20413;-86
2022/06/23 04:17:41;;;;;;;21.67;14.15;;;13.20;99.90;;;;;;5038410;28;20044;-87
2022/06/23 04:20:20;;;;;;;21.10;13.18;;;13.20;99.90;;;;;;5034929;28;20116;-86
2022/06/23 04:22:57;;;;;;;19.83;12.95;;;13.40;93.40;;;;;;5020799;28;20042;-87
2022/06/23 04:25:38;;;;;;;20.25;13.85;;;13.40;75.00;;;;;;5046562;28;20037;-86
2022/06/23 04:28:04;;;;;;;20.08;14.07;;;13.40;63.10;;;;;;5025542;28;20128;-86
2022/06/23 04:30:36;;;;;;;19.83;12.93;;;13.50;81.50;;;;;;5015431;28;20061;-86
2022/06/23 04:33:06;;;;;;;19.05;13.43;;;13.70;73.10;;;;;;5020963;28;20098;-86
2022/06/23 04:35:37;;;;;;;19.17;13.07;;;13.70;48.90;;;;;;5033456;28;20041;-87
2022/06/23 04:38:24;;;;;;;20.77;14.18;;;13.90;19.80;;;;;;5031536;28;20025;-87
2022/06/23 04:40:57;;;;;;;24.27;13.23;;;14.00;9.90;;;;;;5045518;28;20155;-86
2022/06/23 04:43:33;;;;;;;20.92;13.85;;;14.00;1.00;;;;;;5055370;28;20060;-86
2022/06/23 04:46:05;;;;;;;19.85;13.73;;;14.10;19.20;;;;;;5019486;28;20041;-86
2022/06/23 04:48:53;;;;;;;20.63;13.57;;;14.20;11.80;;;;;;5030131;28;20060;-87
2022/06/23 04:51:30;;;;;;;20.63;13.85;;;14.30;28.80;;;;;;5047710;28;20127;-86
2022/06/23 04:54:11;;;;;;;17.73;13.38;;;14.40;1.00;;;;;;5050429;28;20086;-87
2022/06/23 04:56:55;;;;;;;19.20;13.05;;;14.40;1.00;;;;;;5033119;28;20124;-86
2022/06/23 04:59:51;;;;;;;19.20;13.27;;;14.50;14.60;;;;;;5035846;28;20491;-86
2022/06/23 05:02:29;;;;;;;;;;;14.70;1.00;;;;;;5034922;28;20352;-87
2022/06/23 05:05:03;;;;;;;16.83;12.95;;;14.70;1.00;;;;;;5038408;28;19916;-87
2022/06/23 05:07:35;;;;;;;20.17;13.27;;;14.80;1.00;;;;;;5016933;28;20501;-86
2022/06/23 05:10:06;;;;;;;20.15;12.52;;;14.90;1.00;;;;;;5039250;28;20036;-87
2022/06/23 05:12:42;;;;;;;18.20;13.30;;;15.00;1.00;;;;;;5041939;28;20049;-86
2022/06/23 05:15:19;;;;;;;16.95;13.15;;;15.00;1.00;;;;;;5019231;28;20037;-87
2022/06/23 05:18:13;;;;;;;17.58;12.30;;;15.00;1.00;;;;;;5040826;28;20301;-87
2022/06/23 05:20:52;;;;;;;17.02;12.60;;;15.20;1.00;;;;;;5033790;28;20505;-87
2022/06/23 05:23:23;;;;;;;17.25;12.23;;;15.30;1.00;;;;;;5020559;28;20045;-87
2022/06/23 05:25:52;;;;;;;18.88;12.23;;;15.40;1.00;;;;;;5023102;28;20115;-87
2022/06/23 05:28:23;;;;;;;17.55;12.00;;;15.50;1.00;;;;;;5034182;28;20413;-87
2022/06/23 05:31:03;;;;;;;15.50;12.07;;;15.70;1.00;;;;;;5023368;28;20045;-87
2022/06/23 05:33:35;;;;;;;17.17;12.27;;;15.70;99.90;;;;;;5021908;28;20049;-87
2022/06/23 05:36:05;;;;;;;17.30;12.30;;;15.80;99.90;;;;;;5036240;28;20041;-87
2022/06/23 05:38:40;;;;;;;15.68;12.65;;;15.80;99.90;;;;;;5018868;28;20386;-87
2022/06/23 05:41:26;;;;;;;16.55;11.73;;;16.00;1.00;;;;;;5037259;28;20133;-87
2022/06/23 05:43:57;;;;;;;13.90;11.50;;;16.10;99.90;;;;;;5027221;28;20041;-88
2022/06/23 05:46:26;;;;;;;16.52;12.23;;;16.30;99.90;;;;;;5030366;28;20033;-87
2022/06/23 05:49:01;;;;;;;14.85;11.55;;;16.20;99.90;;;;;;5023171;28;20044;-88
2022/06/23 05:51:48;;;;;;;15.50;11.45;;;16.30;99.90;;;;;;5055653;28;20036;-89
2022/06/23 05:54:19;;;;;;;13.32;11.32;;;16.40;99.90;;;;;;5037847;28;20041;-88
2022/06/23 05:57:02;;;;;;;13.10;11.13;;;16.60;99.90;;;;;;5024829;28;20127;-87
2022/06/23 05:59:56;;;;;;;14.32;11.95;;;16.70;99.90;;;;;;5039272;28;20041;-88
2022/06/23 06:02:36;;;;;;;14.40;11.70;;;16.80;99.90;;;;;;5031752;28;20045;-87
2022/06/23 06:05:02;;;;;;;14.63;11.18;;;16.90;99.90;;;;;;5031570;28;20041;-88
2022/06/23 06:07:40;;;;;;;14.18;11.93;;;17.10;99.90;;;;;;5041534;28;20055;-88
2022/06/23 06:10:15;;;;;;;15.35;12.15;;;17.10;99.90;;;;;;5030773;28;20064;-87
2022/06/23 06:12:43;;;;;;;15.15;11.35;;;17.20;99.90;;;;;;5021353;28;20049;-88
2022/06/23 06:15:25;;;;;;;17.90;11.57;;;17.30;99.90;;;;;;5020399;28;20048;-88
2022/06/23 06:17:56;;;;;;;13.60;10.88;;;17.40;99.90;;;;;;5039838;28;20057;-88
2022/06/23 06:20:25;;;;;;;14.23;12.18;;;17.50;99.90;;;;;;5019826;28;20072;-88
2022/06/23 06:23:17;;;;;;;15.30;11.27;;;17.60;99.90;;;;;;5041673;28;20056;-88
2022/06/23 06:25:48;;;;;;;14.38;11.27;;;17.70;99.90;;;;;;5018884;28;20423;-88
2022/06/23 06:28:15;;;;;;;14.95;11.85;;;17.80;99.90;;;;;;5018602;28;20029;-88
2022/06/23 06:30:48;;;;;;;14.00;11.65;;;17.90;99.90;;;;;;5035322;28;20629;-89
2022/06/23 06:33:51;;;;;;;13.73;10.88;;;18.00;99.90;;;;;;5024166;28;20059;-88
2022/06/23 06:36:34;;;;;;;14.45;10.90;;;18.10;99.90;;;;;;5007127;28;20064;-88
2022/06/23 06:39:23;;;;;;;12.90;10.90;;;18.20;99.90;;;;;;5022269;28;20388;-88
2022/06/23 06:42:01;;;;;;;12.93;10.77;;;18.50;99.90;;;;;;5032306;28;20052;-89
2022/06/23 06:44:29;;;;;;;12.48;10.65;;;18.40;99.90;;;;;;5038362;28;20058;-89
2022/06/23 06:46:55;;;;;;;13.20;10.55;;;18.50;99.90;;;;;;5019004;28;20045;-89
2022/06/23 06:49:24;;;;;;;13.77;10.38;;;18.70;99.90;;;;;;5037249;28;20136;-88
2022/06/23 06:51:53;;;;;;;13.00;10.65;;;18.70;99.90;;;;;;5019122;28;20500;-88
2022/06/23 06:54:28;;;;;;;13.77;10.27;;;18.80;99.90;;;;;;5032296;28;20068;-88
2022/06/23 06:56:55;;;;;;;10.85;9.55;;;18.90;99.90;;;;;;5037163;28;20121;-89
2022/06/23 06:59:46;;;;;;;12.60;10.57;;;19.00;99.90;;;;;;5023937;28;20110;-89
2022/06/23 07:02:23;;;;;;;11.65;10.20;;;19.10;99.90;;;;;;5037378;28;20041;-89
2022/06/23 07:05:00;;;;;;;12.00;10.65;;;19.30;99.90;;;;;;5039114;28;20037;-89
2022/06/23 07:07:33;;;;;;;12.13;9.85;;;19.20;99.90;;;;;;5021529;28;20044;-89
2022/06/23 07:10:18;;;;;;;13.50;11.13;;;19.30;99.90;;;;;;5031855;28;20047;-88
2022/06/23 07:12:52;;;;;;;12.45;9.95;;;19.60;99.90;;;;;;5040452;28;20041;-89
2022/06/23 07:15:25;;;;;;;15.85;9.25;;;19.60;99.90;;;;;;5039294;28;20068;-89
2022/06/23 07:17:56;;;;;;;10.82;9.65;;;19.80;99.90;;;;;;5053233;28;20060;-89
2022/06/23 07:20:43;;;;;;;11.15;9.70;;;19.80;99.90;;;;;;5020569;28;20087;-89
2022/06/23 07:23:21;;;;;;;11.63;10.20;;;20.00;99.90;;;;;;5033366;28;20053;-89
2022/06/23 07:25:54;;;;;;;11.45;9.15;;;20.10;99.90;;;;;;5049449;28;20562;-90
2022/06/23 07:28:32;;;;;;;10.50;8.10;;;20.20;92.70;;;;;;5030829;28;20417;-89
2022/06/23 07:31:19;;;;;;;10.20;8.45;;;20.40;99.90;;;;;;5018554;28;20040;-89
2022/06/23 07:33:53;;;;;;;9.30;8.32;;;20.40;57.20;;;;;;5033273;28;20112;-89
2022/06/23 07:36:32;;;;;;;10.10;8.10;;;20.50;91.90;;;;;;5045197;28;20052;-90
2022/06/23 07:39:10;;;;;;;9.30;8.35;;;20.60;46.20;;;;;;5030459;28;20033;-89
2022/06/23 07:41:38;;;;;;;10.52;8.43;;;20.60;11.20;;;;;;5031851;28;20520;-89
2022/06/23 07:44:13;;;;;;;11.48;8.10;;;20.60;23.60;;;;;;5033393;28;20144;-89
2022/06/23 07:46:39;;;;;;;9.82;8.25;;;20.70;16.40;;;;;;5033350;28;20060;-89
2022/06/23 07:49:07;;;;;;;12.73;7.32;;;20.90;1.00;;;;;;5027574;28;20056;-90
2022/06/23 07:51:33;;;;;;;10.00;8.88;;;21.10;1.00;;;;;;5034544;28;20049;-89
2022/06/23 07:53:59;;;;;;;12.98;8.23;;;21.20;35.60;;;;;;5035506;28;20382;-89
2022/06/23 07:56:32;;;;;;;9.65;8.20;;;21.40;22.10;;;;;;5019804;28;20044;-90
2022/06/23 07:59:09;;;;;;;10.02;8.35;;;21.40;14.70;;;;;;5036719;28;20562;-89
2022/06/23 08:01:51;;;;;;;9.10;7.75;;;21.50;1.00;;;;;;5030660;28;20607;-90
2022/06/23 08:04:41;;;;;;;11.27;7.78;;;21.60;4.00;;;;;;5035970;28;20522;-90
2022/06/23 08:07:09;;;;;;;11.38;8.50;;;21.70;1.00;;;;;;5013856;28;20310;-89
2022/06/23 08:09:41;;;;;;;10.73;8.63;;;21.80;1.00;;;;;;5019259;28;20037;-89
2022/06/23 08:18:04;;;;;;;11.32;8.65;;;21.90;1.00;;;;;;5028299;28;20052;-89
2022/06/23 08:20:35;;;;;;;8.67;7.13;;;22.10;1.00;;;;;;5032645;28;20049;-89
2022/06/23 08:23:05;;;;;;;10.15;8.38;;;22.30;1.00;;;;;;5010743;28;20288;-90
2022/06/23 08:25:31;;;;;;;11.98;9.20;;;22.40;1.00;;;;;;5019659;28;20165;-90
2022/06/23 08:27:58;;;;;;;10.45;8.00;;;22.40;1.00;;;;;;5037917;28;20171;-89
2022/06/23 08:30:26;;;;;;;10.63;8.23;;;22.50;1.00;;;;;;5036746;28;20044;-88
2022/06/23 08:32:56;;;;;;;9.02;7.75;;;22.70;1.00;;;;;;5034574;28;20033;-89
2022/06/23 08:35:41;;;;;;;10.68;7.95;;;22.70;1.00;;;;;;5019504;28;20041;-89
2022/06/23 08:38:15;;;;;;;8.98;7.50;;;22.80;1.00;;;;;;5036349;28;20544;-89
2022/06/23 08:41:09;;;;;;;9.25;7.03;;;23.00;1.00;;;;;;5026996;28;20041;-89
2022/06/23 08:43:45;;;;;;;8.73;7.80;;;23.30;1.00;;;;;;5020261;28;20048;-89
2022/06/23 08:46:22;;;;;;;9.13;7.85;;;23.30;1.00;;;;;;5040386;28;20036;-89
2022/06/23 08:48:58;;;;;;;8.32;7.38;;;23.30;1.00;;;;;;5036329;28;20073;-89
2022/06/23 08:51:47;;;;;;;10.00;6.85;;;23.60;1.00;;;;;;5029391;28;20040;-89
2022/06/23 08:54:21;;;;;;;9.65;7.07;;;23.70;1.00;;;;;;5051641;28;20431;-89
2022/06/23 08:57:08;;;;;;;10.50;7.43;;;23.70;1.00;;;;;;5041053;28;20108;-88
2022/06/23 08:59:50;;;;;;;8.23;6.90;;;23.90;1.00;;;;;;5036688;28;20029;-89
2022/06/23 09:02:35;;;;;;;8.98;6.72;;;23.90;1.00;;;;;;5039131;28;20461;-89
2022/06/23 09:05:19;;;;;;;9.75;6.03;;;24.00;1.00;;;;;;5050913;28;20053;-89
2022/06/23 09:07:54;;;;;;;7.30;5.60;;;24.20;1.00;;;;;;5033972;28;20045;-89
2022/06/23 09:10:42;;;;;;;9.77;5.50;;;24.30;1.00;;;;;;5019427;28;20191;-89
2022/06/23 09:13:26;;;;;;;7.95;5.80;;;24.60;1.00;;;;;;5035264;28;20060;-90
2022/06/23 09:16:10;;;;;;;9.40;6.00;;;24.70;1.00;;;;;;5034994;28;20040;-89
2022/06/23 09:19:24;;;;;;;6.95;6.07;;;24.80;99.90;;;;;;5040174;28;20355;-89
2022/06/23 09:22:08;;;;;;;8.43;5.80;;;24.90;99.90;;;;;;4998205;28;20164;-88
2022/06/23 09:25:13;;;;;;;7.65;6.18;;;25.10;99.90;;;;;;5028763;28;20175;-88
2022/06/23 09:27:53;;;;;;;9.40;6.43;;;25.30;99.90;;;;;;5013272;28;20127;-89
2022/06/23 09:30:44;;;;;;;6.80;6.10;;;25.30;99.90;;;;;;5053170;28;20299;-88
2022/06/23 09:33:36;;;;;;;8.88;6.00;;;25.20;99.90;;;;;;5034031;28;20041;-89
2022/06/23 09:36:36;;;;;;;6.28;5.10;;;25.60;99.90;;;;;;5016015;28;20128;-90
2022/06/23 09:39:15;;;;;;;9.48;4.70;;;25.80;99.90;;;;;;5048704;28;20370;-90
2022/06/23 09:42:14;;;;;;;9.15;4.90;;;26.00;99.90;;;;;;5038691;28;20548;-89
2022/06/23 09:45:07;;;;;;;7.07;5.47;;;26.10;99.90;;;;;;5009231;28;20481;-89
2022/06/23 09:48:01;;;;;;;7.43;5.30;;;25.80;99.90;;;;;;5033505;28;20089;-88
2022/06/23 09:50:55;;;;;;;7.80;5.03;;;26.10;99.90;;;;;;5047222;28;20262;-90
2022/06/23 09:53:39;;;;;;;6.30;4.53;;;26.20;99.90;;;;;;5030511;28;20041;-91
2022/06/23 09:56:34;;;;;;;7.30;4.90;;;26.40;99.90;;;;;;5030021;28;20041;-89
2022/06/23 09:59:19;;;;;;;;;;;26.60;99.90;;;;;;5029489;28;20051;-90
2022/06/23 10:02:06;;;;;;;7.72;4.50;;;26.80;99.90;;;;;;5036971;28;20369;-89
2022/06/23 10:04:43;;;;;;;7.25;4.15;;;26.60;99.90;;;;;;5040022;28;20041;-90
2022/06/23 10:07:53;;;;;;;7.22;4.30;;;26.90;99.90;;;;;;5040942;28;20048;-90
2022/06/23 10:10:38;;;;;;;4.60;3.50;;;26.90;99.90;;;;;;5047729;28;20037;-91
2022/06/23 10:13:15;;;;;;;5.38;2.90;;;27.10;99.90;;;;;;5036958;28;20187;-90
2022/06/23 10:16:06;;;;;;;6.40;2.88;;;27.20;99.90;;;;;;5059375;28;20453;-90
2022/06/23 10:18:36;;;;;;;8.23;3.42;;;27.10;99.90;;;;;;5028679;28;20080;-90
2022/06/23 10:21:43;;;;;;;5.38;3.10;;;27.40;99.90;;;;;;5037229;28;20044;-89
2022/06/23 10:24:14;;;;;;;5.20;2.95;;;27.50;99.90;;;;;;5051369;28;20040;-89
2022/06/23 10:26:43;;;;;;;4.15;2.90;;;27.70;99.90;;;;;;5038620;28;20704;-90
2022/06/23 10:29:15;;;;;;;4.70;2.70;;;27.80;99.90;;;;;;5040560;28;20758;-91
2022/06/23 10:32:06;;;;;;;4.95;2.88;;;27.90;99.90;;;;;;5040202;28;20329;-90
2022/06/23 10:34:54;;;;;;;5.85;2.95;;;27.90;99.90;;;;;;5017963;28;20435;-91
2022/06/23 10:37:33;;;;;;;3.47;2.80;;;28.10;99.90;;;;;;5055767;28;20040;-89
2022/06/23 10:40:23;;;;;;;3.50;2.70;;;28.00;99.90;;;;;;5020705;28;20049;-89
2022/06/23 10:42:56;;;;;;;4.28;2.70;;;28.20;99.90;;;;;;5038678;28;20045;-90
2022/06/23 10:45:36;;;;;;;4.80;2.85;;;28.50;99.90;;;;;;5034273;28;20128;-89
2022/06/23 10:48:47;;;;;;;4.20;3.00;;;28.40;99.90;;;;;;5043822;28;20036;-90
2022/06/23 10:51:51;;;;;;;5.28;2.67;;;28.30;99.90;;;;;;5015353;28;20448;-90
2022/06/23 10:54:50;;;;;;;5.72;2.70;;;28.70;99.90;;;;;;5029700;28;20049;-90
2022/06/23 10:57:35;;;;;;;3.83;2.70;;;28.80;99.90;;;;;;5020557;28;20043;-90
2022/06/23 11:00:10;;;;;;;4.07;2.88;;;29.00;99.90;;;;;;5013182;28;20188;-89
2022/06/23 11:02:49;;;;;;;;;;;28.70;99.90;;;;;;5009418;28;20516;-89
2022/06/23 11:05:17;;;;;;;8.13;2.92;;;28.90;99.90;;;;;;5035924;28;19925;-91
2022/06/23 11:08:11;;;;;;;2.75;2.42;;;29.10;99.90;;;;;;5036912;28;20084;-90
2022/06/23 11:10:51;;;;;;;4.57;2.67;;;29.10;99.90;;;;;;5021819;28;20437;-91
2022/06/23 11:13:32;;;;;;;3.60;2.47;;;29.20;99.90;;;;;;5050773;28;20412;-89
2022/06/23 11:16:30;;;;;;;20.35;3.88;;;29.50;99.90;;;;;;5036945;28;20039;-90
2022/06/23 11:19:29;;;;;;;4.53;2.97;;;29.80;99.90;;;;;;5023050;28;20119;-90
2022/06/23 11:22:29;;;;;;;3.58;2.47;;;29.60;99.90;;;;;;5047541;28;20562;-90
2022/06/23 11:25:10;;;;;;;8.13;2.97;;;29.80;99.90;;;;;;5019151;28;20056;-89
2022/06/23 11:28:04;;;;;;;4.78;2.72;;;30.00;99.90;;;;;;5020936;28;20084;-90
2022/06/23 11:30:32;;;;;;;4.40;2.67;;;30.20;99.90;;;;;;5032777;28;20040;-90
2022/06/23 11:33:22;;;;;;;5.45;2.40;;;30.20;99.90;;;;;;5037762;28;20044;-90
2022/06/23 11:36:19;;;;;;;5.57;2.30;;;30.30;99.90;;;;;;5053685;28;20146;-91
2022/06/23 11:39:03;;;;;;;8.45;2.72;;;30.50;99.90;;;;;;5037969;28;20041;-92
2022/06/23 11:41:37;;;;;;;5.93;2.40;;;30.70;99.90;;;;;;5033901;28;20053;-91
2022/06/23 11:44:17;;;;;;;3.95;2.22;;;30.50;99.90;;;;;;5034067;28;20044;-91
2022/06/23 11:47:09;;;;;;;5.13;2.30;;;30.50;99.90;;;;;;5022971;28;20049;-90
2022/06/23 11:49:53;;;;;;;4.85;2.40;;;30.70;99.90;;;;;;5029128;28;20413;-91
2022/06/23 11:52:59;;;;;;;4.10;2.50;;;30.80;99.90;;;;;;5041425;28;20055;-91
2022/06/23 11:55:36;;;;;;;3.25;1.88;;;31.10;99.90;;;;;;5035975;28;20045;-91
2022/06/23 11:58:08;;;;;;;4.90;2.10;;;31.00;99.90;;;;;;5039517;28;20068;-92
2022/06/23 12:00:53;;;;;;;5.63;2.10;;;31.10;99.90;;;;;;5035999;28;20079;-91
2022/06/23 12:03:43;;;;;;;8.38;2.30;;;30.80;99.90;;;;;;5054223;28;20606;-91
2022/06/23 12:06:11;;;;;;;3.22;1.73;;;31.30;99.90;;;;;;5041789;28;20516;-92
2022/06/23 12:09:01;;;;;;;2.60;2.08;;;31.70;99.90;;;;;;5038189;28;20110;-92
2022/06/23 12:11:30;;;;;;;3.15;2.00;;;31.40;99.90;;;;;;5040554;28;20165;-91
2022/06/23 12:13:59;;;;;;;4.60;2.20;;;31.50;99.90;;;;;;5026773;28;20108;-91
2022/06/23 12:16:30;;;;;;;3.38;1.92;;;31.10;99.90;;;;;;5043245;28;20503;-92
2022/06/23 12:19:05;;;;;;;3.10;2.08;;;31.50;99.90;;;;;;5051239;28;20033;-92
2022/06/23 12:22:06;;;;;;;4.57;1.83;;;31.30;99.90;;;;;;5056163;28;20037;-90
2022/06/23 12:24:43;;;;;;;4.32;1.98;;;31.70;99.90;;;;;;5036295;28;20123;-91
2022/06/23 12:27:44;;;;;;;2.60;1.67;;;32.00;99.90;;;;;;5023687;28;20102;-91
2022/06/23 12:30:16;;;;;;;2.60;1.98;;;32.00;99.90;;;;;;5050459;28;20559;-91
2022/06/23 12:33:17;;;;;;;3.33;2.10;;;32.00;99.90;;;;;;5044703;28;20064;-91
2022/06/23 12:36:16;;;;;;;3.50;2.20;;;32.20;99.90;;;;;;5051300;28;20044;-92
2022/06/23 12:38:49;;;;;;;4.53;2.08;;;32.20;99.90;;;;;;5033679;28;20111;-92
2022/06/23 12:41:33;;;;;;;3.63;2.03;;;32.50;99.90;;;;;;5039337;28;20045;-92
2022/06/23 12:44:18;;;;;;;6.90;2.20;;;32.10;99.90;;;;;;5037918;28;20308;-92
2022/06/23 12:47:13;;;;;;;3.97;1.98;;;32.70;99.90;;;;;;5040674;28;20515;-91
2022/06/23 12:50:07;;;;;;;4.43;1.90;;;32.80;99.90;;;;;;5040756;28;20044;-92
2022/06/23 12:53:07;;;;;;;3.55;1.80;;;32.70;99.90;;;;;;5044032;28;20128;-91
2022/06/23 12:55:47;;;;;;;3.35;2.00;;;32.70;99.90;;;;;;5035417;28;20143;-92
2022/06/23 12:58:19;;;;;;;4.72;1.85;;;32.90;99.90;;;;;;5043936;28;20067;-92
2022/06/23 13:00:50;;;;;;;3.85;1.90;;;32.90;99.90;;;;;;5054362;28;20410;-91
2022/06/23 13:03:30;;;;;;;4.28;2.10;;;33.30;99.90;;;;;;5041329;28;20041;-92
2022/06/23 13:06:12;;;;;;;4.20;2.10;;;33.30;99.90;;;;;;5041840;28;20045;-93
2022/06/23 13:09:02;;;;;;;3.95;2.30;;;33.30;99.90;;;;;;5043710;28;20041;-92
2022/06/23 13:11:50;;;;;;;3.70;2.00;;;33.40;99.90;;;;;;5053995;28;20052;-93
2022/06/23 13:14:26;;;;;;;7.38;2.95;;;33.70;99.90;;;;;;5028204;28;20080;-93
2022/06/23 13:17:11;;;;;;;3.10;2.15;;;33.20;99.90;;;;;;5038678;28;20094;-92
2022/06/23 13:19:49;;;;;;;2.22;1.80;;;33.60;99.90;;;;;;5038417;28;20053;-92
2022/06/23 13:22:14;;;;;;;4.03;1.90;;;33.70;99.90;;;;;;5019992;28;20487;-92
2022/06/23 13:24:43;;;;;;;5.40;2.50;;;33.00;99.90;;;;;;5026183;28;20088;-92
2022/06/23 13:27:19;;;;;;;5.88;2.45;;;33.50;99.90;;;;;;5042728;28;20397;-92
2022/06/23 13:30:07;;;;;;;3.55;1.95;;;33.40;99.90;;;;;;5040951;28;20029;-92
2022/06/23 13:32:47;;;;;;;12.15;2.80;;;33.60;99.90;;;;;;5044619;28;20041;-92
2022/06/23 13:35:27;;;;;;;5.30;2.05;;;33.30;99.90;;;;;;5036595;28;20041;-93
2022/06/23 13:38:18;;;;;;;6.20;2.45;;;33.80;99.90;;;;;;5037643;28;20578;-93
2022/06/23 13:41:08;;;;;;;4.22;2.00;;;34.10;99.90;;;;;;5027475;28;20052;-93
2022/06/23 13:43:34;;;;;;;4.82;2.05;;;34.20;99.90;;;;;;5027275;28;20095;-93
2022/06/23 13:46:19;;;;;;;3.15;1.80;;;34.00;99.90;;;;;;5022027;28;20041;-92
2022/06/23 13:48:47;;;;;;;4.13;1.83;;;33.60;99.90;;;;;;5043761;28;20045;-92
2022/06/23 13:51:43;;;;;;;5.65;2.20;;;33.90;99.90;;;;;;5041727;28;20037;-93
2022/06/23 13:54:23;;;;;;;3.55;1.88;;;33.90;99.90;;;;;;5034529;28;20097;-92
2022/06/23 13:57:27;;;;;;;3.35;2.00;;;34.00;99.90;;;;;;5060799;28;20068;-92